createdAt,value
2023-03-26T00:00:54.166Z,0.60
2023-03-26T00:03:21.012Z,1.13
2023-03-26T00:05:50.642Z,0.77
2023-03-26T00:08:17.761Z,0.77
2023-03-26T00:10:44.296Z,1.03
2023-03-26T00:13:11.302Z,0.70
2023-03-26T00:15:38.211Z,0.90
2023-03-26T00:18:05.700Z,0.90
2023-03-26T00:20:32.876Z,0.87
2023-03-26T00:23:03.532Z,0.90
2023-03-26T00:25:31.835Z,0.90
2023-03-26T00:27:59.195Z,1.00
2023-03-26T00:30:25.884Z,0.83
2023-03-26T00:32:53.820Z,0.70
2023-03-26T00:35:20.888Z,1.10
2023-03-26T00:37:47.833Z,0.80
2023-03-26T00:40:14.305Z,0.80
2023-03-26T00:42:40.685Z,1.00
2023-03-26T00:45:07.755Z,0.93
2023-03-26T00:47:34.653Z,1.23
2023-03-26T00:50:01.521Z,0.87
2023-03-26T00:52:28.688Z,1.10
2023-03-26T00:54:55.552Z,0.90
2023-03-26T00:57:34.537Z,1.07
2023-03-26T01:00:15.920Z,0.80
2023-03-26T01:02:45.084Z,0.90
2023-03-26T01:05:42.669Z,0.90
2023-03-26T01:08:27.199Z,0.90
2023-03-26T01:11:02.903Z,0.90
2023-03-26T01:13:33.360Z,1.00
2023-03-26T01:16:01.930Z,0.90
2023-03-26T01:18:33.982Z,1.00
2023-03-26T01:21:05.464Z,1.00
2023-03-26T01:23:44.387Z,0.90
2023-03-26T01:26:15.889Z,1.00
2023-03-26T01:28:43.048Z,1.27
2023-03-26T01:31:21.737Z,0.70
2023-03-26T01:34:06.831Z,0.90
2023-03-26T01:36:50.124Z,1.20
2023-03-26T01:39:27.157Z,0.77
2023-03-26T01:42:17.290Z,1.00
2023-03-26T01:45:09.825Z,0.70
2023-03-26T01:47:38.228Z,0.80
2023-03-26T01:50:05.318Z,1.03
2023-03-26T01:52:31.764Z,0.97
2023-03-26T01:54:58.626Z,1.10
2023-03-26T01:57:36.646Z,1.07
2023-03-26T02:00:18.103Z,1.00
2023-03-26T02:03:09.966Z,1.10
2023-03-26T02:06:05.374Z,0.93
2023-03-26T02:08:37.640Z,1.00
2023-03-26T02:11:13.327Z,0.83
2023-03-26T02:13:42.390Z,0.93
2023-03-26T02:16:14.260Z,1.10
2023-03-26T02:18:40.852Z,1.03
2023-03-26T02:21:20.138Z,1.20
2023-03-26T02:23:49.030Z,1.07
2023-03-26T02:26:18.690Z,0.70
2023-03-26T02:28:45.169Z,0.70
2023-03-26T02:31:13.777Z,0.80
2023-03-26T02:33:40.461Z,1.17
2023-03-26T02:36:08.386Z,1.03
2023-03-26T02:38:35.220Z,1.10
2023-03-26T02:41:02.634Z,1.07
2023-03-26T02:43:29.203Z,0.80
2023-03-26T02:45:56.139Z,1.00
2023-03-26T02:48:23.181Z,1.03
2023-03-26T02:50:50.256Z,1.17
2023-03-26T02:53:16.962Z,0.80
2023-03-26T02:55:43.380Z,0.90
2023-03-26T02:58:09.754Z,1.10
2023-03-26T03:00:36.241Z,0.80
2023-03-26T03:03:04.520Z,0.87
2023-03-26T03:05:32.275Z,1.00
2023-03-26T03:07:59.430Z,0.73
2023-03-26T03:10:27.735Z,0.90
2023-03-26T03:12:54.926Z,1.10
2023-03-26T03:15:21.423Z,1.17
2023-03-26T03:17:47.912Z,1.17
2023-03-26T03:20:15.425Z,1.00
2023-03-26T03:22:42.277Z,0.80
2023-03-26T03:25:09.819Z,0.80
2023-03-26T03:27:39.283Z,0.97
2023-03-26T03:30:06.571Z,0.90
2023-03-26T03:32:33.111Z,0.80
2023-03-26T03:34:59.512Z,1.00
2023-03-26T03:37:26.988Z,1.13
2023-03-26T03:39:53.773Z,1.47
2023-03-26T03:42:20.304Z,1.03
2023-03-26T03:44:46.814Z,0.90
2023-03-26T03:47:13.842Z,0.80
2023-03-26T03:49:40.739Z,1.20
2023-03-26T03:52:07.294Z,1.03
2023-03-26T03:54:33.769Z,1.20
2023-03-26T03:57:02.045Z,1.30
2023-03-26T03:59:28.557Z,1.20
2023-03-26T04:01:54.926Z,1.20
2023-03-26T04:04:21.977Z,1.30
2023-03-26T04:06:48.441Z,1.30
2023-03-26T04:09:14.817Z,1.43
2023-03-26T04:11:41.242Z,1.00
2023-03-26T04:14:07.651Z,0.97
2023-03-26T04:16:34.094Z,1.23
2023-03-26T04:19:02.380Z,1.00
2023-03-26T04:21:30.448Z,1.23
2023-03-26T04:23:57.022Z,0.90
2023-03-26T04:26:23.683Z,1.33
2023-03-26T04:28:56.500Z,0.90
2023-03-26T04:31:28.982Z,1.17
2023-03-26T04:34:00.051Z,1.00
2023-03-26T04:36:28.961Z,1.33
2023-03-26T04:38:58.313Z,1.07
2023-03-26T04:41:27.557Z,1.10
2023-03-26T04:43:54.410Z,0.93
2023-03-26T04:46:23.854Z,1.47
2023-03-26T04:48:51.614Z,0.93
2023-03-26T04:51:19.701Z,1.03
2023-03-26T04:53:52.443Z,1.07
2023-03-26T04:56:38.110Z,1.17
2023-03-26T04:59:05.004Z,1.00
2023-03-26T05:01:32.130Z,1.20
2023-03-26T05:03:58.893Z,1.13
2023-03-26T05:06:28.080Z,0.97
2023-03-26T05:08:55.177Z,1.07
2023-03-26T05:11:21.681Z,1.07
2023-03-26T05:13:48.124Z,1.20
2023-03-26T05:16:14.595Z,0.90
2023-03-26T05:18:41.074Z,1.00
2023-03-26T05:21:08.000Z,1.10
2023-03-26T05:23:34.521Z,0.90
2023-03-26T05:26:01.599Z,1.43
2023-03-26T05:28:28.263Z,1.37
2023-03-26T05:30:55.009Z,1.00
2023-03-26T05:33:23.390Z,1.37
2023-03-26T05:36:03.603Z,1.40
2023-03-26T05:38:30.949Z,1.20
2023-03-26T05:41:06.237Z,1.27
2023-03-26T05:43:33.730Z,1.30
2023-03-26T05:46:00.360Z,1.47
2023-03-26T05:48:27.467Z,1.10
2023-03-26T05:50:56.939Z,1.20
2023-03-26T05:53:25.358Z,1.13
2023-03-26T05:55:58.420Z,1.23
2023-03-26T05:58:26.284Z,1.90
2023-03-26T06:01:10.148Z,0.83
2023-03-26T06:03:39.258Z,1.10
2023-03-26T06:06:15.416Z,0.90
2023-03-26T06:09:01.813Z,1.00
2023-03-26T06:11:29.034Z,0.97
2023-03-26T06:13:55.606Z,1.17
2023-03-26T06:16:27.496Z,1.10
2023-03-26T06:18:56.109Z,1.00
2023-03-26T06:21:24.038Z,1.20
2023-03-26T06:23:51.702Z,0.80
2023-03-26T06:26:18.186Z,1.33
2023-03-26T06:28:44.619Z,1.00
2023-03-26T06:31:11.683Z,1.27
2023-03-26T06:33:38.230Z,0.87
2023-03-26T06:36:05.399Z,1.17
2023-03-26T06:38:32.091Z,1.07
2023-03-26T06:41:03.436Z,1.17
2023-03-26T06:43:33.565Z,1.20
2023-03-26T06:46:01.426Z,0.90
2023-03-26T06:48:28.855Z,0.90
2023-03-26T06:50:55.479Z,1.47
2023-03-26T06:53:22.276Z,1.20
2023-03-26T06:55:48.912Z,1.00
2023-03-26T06:58:16.631Z,1.40
2023-03-26T07:00:44.568Z,1.07
2023-03-26T07:03:11.506Z,1.07
2023-03-26T07:05:41.049Z,1.13
2023-03-26T07:08:07.505Z,0.90
2023-03-26T07:10:34.000Z,1.00
2023-03-26T07:13:00.566Z,0.73
2023-03-26T07:15:28.553Z,1.10
2023-03-26T07:17:55.485Z,1.07
2023-03-26T07:20:22.193Z,0.90
2023-03-26T07:22:49.063Z,1.17
2023-03-26T07:25:17.298Z,0.90
2023-03-26T07:27:51.737Z,1.00
2023-03-26T07:30:32.698Z,1.10
2023-03-26T07:33:06.712Z,0.90
2023-03-26T07:35:43.507Z,0.80
2023-03-26T07:38:36.992Z,1.27
2023-03-26T07:41:28.297Z,1.10
2023-03-26T07:44:22.460Z,1.50
2023-03-26T07:46:49.473Z,1.03
2023-03-26T07:49:17.888Z,1.30
2023-03-26T07:51:44.494Z,1.27
2023-03-26T07:54:11.273Z,1.20
2023-03-26T07:56:52.650Z,1.30
2023-03-26T07:59:34.268Z,1.20
2023-03-26T08:02:41.331Z,1.60
2023-03-26T08:05:37.549Z,1.10
2023-03-26T08:08:25.720Z,1.20
2023-03-26T08:11:21.141Z,1.27
2023-03-26T08:14:04.124Z,1.30
2023-03-26T08:16:35.625Z,1.90
2023-03-26T08:19:40.742Z,1.20
2023-03-26T08:22:31.179Z,1.53
2023-03-26T08:25:19.647Z,1.30
2023-03-26T08:28:06.379Z,1.17
2023-03-26T08:30:33.204Z,1.80
2023-03-26T08:33:11.497Z,1.23
2023-03-26T08:35:44.447Z,1.50
2023-03-26T08:38:16.480Z,1.40
2023-03-26T08:41:07.016Z,1.20
2023-03-26T08:44:00.680Z,1.27
2023-03-26T08:46:46.354Z,1.37
2023-03-26T08:49:38.600Z,1.53
2023-03-26T08:52:15.439Z,1.60
2023-03-26T08:55:06.123Z,1.60
2023-03-26T08:57:35.694Z,1.27
2023-03-26T09:00:27.462Z,1.83
2023-03-26T09:03:23.064Z,2.07
2023-03-26T09:06:02.810Z,1.43
2023-03-26T09:09:23.444Z,1.50
2023-03-26T09:12:06.473Z,1.33
2023-03-26T09:15:10.137Z,1.27
2023-03-26T09:18:15.343Z,1.30
2023-03-26T09:20:59.949Z,1.30
2023-03-26T09:24:05.158Z,1.40
2023-03-26T09:26:59.246Z,1.83
2023-03-26T09:29:39.072Z,1.33
2023-03-26T09:32:17.639Z,1.07
2023-03-26T09:35:06.340Z,1.50
2023-03-26T09:38:00.292Z,1.10
2023-03-26T09:40:26.618Z,1.00
2023-03-26T09:43:29.122Z,0.97
2023-03-26T09:46:13.558Z,1.17
2023-03-26T09:48:53.978Z,0.97
2023-03-26T09:51:45.191Z,1.50
2023-03-26T09:54:44.574Z,0.80
2023-03-26T09:57:42.349Z,1.00
2023-03-26T10:00:17.910Z,1.10
2023-03-26T10:02:46.719Z,0.90
2023-03-26T10:05:49.205Z,0.90
2023-03-26T10:08:24.623Z,1.20
2023-03-26T10:11:11.738Z,1.17
2023-03-26T10:14:08.909Z,1.03
2023-03-26T10:16:41.091Z,1.20
2023-03-26T10:19:35.584Z,0.90
2023-03-26T10:22:13.896Z,1.00
2023-03-26T10:24:53.708Z,0.77
2023-03-26T10:27:37.444Z,0.83
2023-03-26T10:30:11.678Z,0.90
2023-03-26T10:33:00.746Z,0.57
2023-03-26T10:36:05.028Z,1.03
2023-03-26T10:39:37.184Z,1.97
2023-03-26T10:42:21.359Z,1.10
2023-03-26T10:45:10.773Z,1.50
2023-03-26T10:48:03.264Z,0.87
2023-03-26T10:50:54.181Z,1.60
2023-03-26T10:53:37.281Z,1.20
2023-03-26T10:56:27.446Z,1.00
2023-03-26T10:58:56.869Z,0.70
2023-03-26T11:01:43.794Z,0.57
2023-03-26T11:04:32.781Z,1.20
2023-03-26T11:07:05.214Z,0.70
2023-03-26T11:09:56.397Z,0.60
2023-03-26T11:12:32.866Z,0.83
2023-03-26T11:15:13.159Z,1.80
2023-03-26T11:17:58.997Z,1.00
2023-03-26T11:20:54.962Z,1.30
2023-03-26T11:24:05.674Z,0.93
2023-03-26T11:26:52.920Z,0.90
2023-03-26T11:29:32.646Z,0.63
2023-03-26T11:32:13.586Z,1.10
2023-03-26T11:34:54.219Z,0.90
2023-03-26T11:37:38.742Z,0.80
2023-03-26T11:40:25.572Z,0.60
2023-03-26T11:42:59.131Z,1.10
2023-03-26T11:45:31.037Z,1.40
2023-03-26T11:48:17.005Z,0.70
2023-03-26T11:50:51.320Z,0.70
2023-03-26T11:53:21.891Z,0.80
2023-03-26T11:55:58.186Z,0.73
2023-03-26T11:58:33.890Z,0.80
2023-03-26T12:01:04.496Z,0.70
2023-03-26T12:03:31.979Z,0.60
2023-03-26T12:05:59.680Z,0.60
2023-03-26T12:08:37.904Z,0.53
2023-03-26T12:11:10.292Z,0.30
2023-03-26T12:13:53.415Z,0.70
2023-03-26T12:16:23.057Z,0.33
2023-03-26T12:19:19.861Z,0.50
2023-03-26T12:21:52.765Z,0.60
2023-03-26T12:24:31.752Z,0.70
2023-03-26T12:27:03.897Z,0.87
2023-03-26T12:29:35.356Z,0.70
2023-03-26T12:32:13.846Z,0.87
2023-03-26T12:34:41.269Z,0.90
2023-03-26T12:37:35.100Z,0.30
2023-03-26T12:40:24.964Z,0.60
2023-03-26T12:44:52.932Z,0.70
2023-03-26T12:45:43.133Z,0.50
2023-03-26T12:48:15.714Z,0.37
2023-03-26T12:51:06.501Z,0.40
2023-03-26T12:54:09.714Z,0.60
2023-03-26T12:57:16.841Z,0.67
2023-03-26T12:59:46.782Z,0.63
2023-03-26T13:02:51.394Z,0.53
2023-03-26T13:05:17.935Z,0.50
2023-03-26T13:08:12.652Z,0.70
2023-03-26T13:11:06.247Z,0.50
2023-03-26T13:13:51.774Z,0.77
2023-03-26T13:16:40.071Z,0.77
2023-03-26T13:19:16.621Z,0.73
2023-03-26T13:21:58.991Z,0.57
2023-03-26T13:24:30.711Z,0.80
2023-03-26T13:27:21.785Z,0.80
2023-03-26T13:30:00.587Z,0.80
2023-03-26T13:32:34.481Z,0.70
2023-03-26T13:35:13.464Z,0.90
2023-03-26T13:37:54.387Z,0.90
2023-03-26T13:40:42.454Z,0.70
2023-03-26T13:43:27.743Z,0.83
2023-03-26T13:46:17.130Z,0.50
2023-03-26T13:48:53.033Z,0.47
2023-03-26T13:51:35.053Z,0.40
2023-03-26T13:54:21.513Z,0.70
2023-03-26T13:56:54.914Z,0.77
2023-03-26T13:59:44.049Z,0.87
2023-03-26T14:02:20.938Z,0.80
2023-03-26T14:04:54.173Z,0.50
2023-03-26T14:07:31.267Z,1.03
2023-03-26T14:10:05.070Z,0.80
2023-03-26T14:13:16.231Z,0.43
2023-03-26T14:16:19.395Z,0.80
2023-03-26T14:19:22.486Z,0.80
2023-03-26T14:22:27.224Z,0.60
2023-03-26T14:25:24.452Z,0.70
2023-03-26T14:28:18.729Z,0.60
2023-03-26T14:30:57.170Z,0.93
2023-03-26T14:34:05.090Z,0.70
2023-03-26T14:36:49.995Z,0.80
2023-03-26T14:39:42.245Z,0.60
2023-03-26T14:42:24.587Z,1.07
2023-03-26T14:45:24.476Z,0.33
2023-03-26T14:48:07.879Z,0.50
2023-03-26T14:50:48.129Z,0.33
2023-03-26T14:53:34.573Z,0.37
2023-03-26T14:56:43.554Z,0.47
2023-03-26T14:59:23.126Z,0.40
2023-03-26T15:02:17.461Z,0.43
2023-03-26T15:05:18.148Z,0.33
2023-03-26T15:08:12.278Z,0.90
2023-03-26T15:11:10.480Z,0.30
2023-03-26T15:13:36.875Z,0.40
2023-03-26T15:16:23.663Z,0.40
2023-03-26T15:19:41.942Z,0.40
2023-03-26T15:22:26.216Z,0.40
2023-03-26T15:25:30.856Z,0.53
2023-03-26T15:27:57.466Z,0.50
2023-03-26T15:30:54.129Z,0.47
2023-03-26T15:33:34.994Z,0.40
2023-03-26T15:36:21.405Z,0.57
2023-03-26T15:39:25.649Z,0.50
2023-03-26T15:42:18.361Z,0.40
2023-03-26T15:45:39.673Z,0.30
2023-03-26T15:48:12.435Z,0.30
2023-03-26T15:51:17.537Z,0.30
2023-03-26T15:54:00.430Z,0.50
2023-03-26T15:56:34.322Z,0.60
2023-03-26T15:59:06.546Z,0.70
2023-03-26T16:02:03.763Z,0.40
2023-03-26T16:05:09.409Z,0.30
2023-03-26T16:07:52.006Z,0.30
2023-03-26T16:10:28.334Z,0.70
2023-03-26T16:13:13.740Z,0.40
2023-03-26T16:15:40.719Z,0.43
2023-03-26T16:18:12.860Z,0.40
2023-03-26T16:20:55.873Z,0.40
2023-03-26T16:23:25.142Z,0.57
2023-03-26T16:25:59.283Z,0.30
2023-03-26T16:28:36.810Z,0.27
2023-03-26T16:31:23.653Z,0.30
2023-03-26T16:34:28.038Z,0.37
2023-03-26T16:36:55.079Z,0.40
2023-03-26T16:39:23.403Z,0.40
2023-03-26T16:42:05.668Z,0.50
2023-03-26T16:45:14.546Z,0.60
2023-03-26T16:48:01.761Z,0.40
2023-03-26T16:50:55.620Z,0.33
2023-03-26T16:53:41.643Z,0.40
2023-03-26T16:56:28.053Z,0.40
2023-03-26T16:59:09.646Z,0.40
2023-03-26T17:01:58.446Z,0.50
2023-03-26T17:04:32.547Z,0.50
2023-03-26T17:07:13.692Z,0.83
2023-03-26T17:09:58.468Z,0.43
2023-03-26T17:12:27.724Z,0.40
2023-03-26T17:15:06.919Z,0.40
2023-03-26T17:17:55.340Z,0.30
2023-03-26T17:20:38.608Z,0.43
2023-03-26T17:23:11.119Z,0.40
2023-03-26T17:25:44.280Z,0.40
2023-03-26T17:28:35.404Z,0.97
2023-03-26T17:31:11.913Z,0.60
2023-03-26T17:33:39.221Z,0.40
2023-03-26T17:36:11.935Z,0.53
2023-03-26T17:38:44.918Z,0.40
2023-03-26T17:41:15.421Z,0.60
2023-03-26T17:43:45.418Z,0.50
2023-03-26T17:46:25.645Z,0.37
2023-03-26T17:49:13.801Z,0.43
2023-03-26T17:51:44.396Z,0.50
2023-03-26T17:54:28.921Z,0.70
2023-03-26T17:56:59.961Z,0.70
2023-03-26T17:59:27.488Z,0.80
2023-03-26T18:01:58.572Z,0.70
2023-03-26T18:04:31.155Z,0.80
2023-03-26T18:07:11.836Z,1.33
2023-03-26T18:10:13.162Z,0.80
2023-03-26T18:13:08.584Z,1.10
2023-03-26T18:15:54.997Z,1.30
2023-03-26T18:18:37.059Z,1.03
2023-03-26T18:21:07.185Z,0.50
2023-03-26T18:23:39.037Z,0.50
2023-03-26T18:26:12.534Z,0.40
2023-03-26T18:28:45.501Z,0.40
2023-03-26T18:31:20.349Z,0.60
2023-03-26T18:33:49.418Z,0.40
2023-03-26T18:36:18.490Z,0.40
2023-03-26T18:38:46.747Z,0.50
2023-03-26T18:41:39.200Z,0.60
2023-03-26T18:44:11.397Z,0.30
2023-03-26T18:46:38.666Z,0.80
2023-03-26T18:49:06.344Z,0.43
2023-03-26T18:51:38.335Z,0.50
2023-03-26T18:54:16.840Z,0.60
2023-03-26T18:56:47.054Z,0.60
2023-03-26T18:59:31.706Z,0.60
2023-03-26T19:02:02.324Z,0.57
2023-03-26T19:04:33.369Z,0.70
2023-03-26T19:07:01.519Z,0.63
2023-03-26T19:09:32.023Z,0.70
2023-03-26T19:12:08.169Z,0.40
2023-03-26T19:14:51.348Z,0.33
2023-03-26T19:17:18.069Z,0.70
2023-03-26T19:19:44.590Z,0.50
2023-03-26T19:22:11.838Z,0.70
2023-03-26T19:24:40.879Z,0.50
2023-03-26T19:27:07.383Z,0.60
2023-03-26T19:29:36.208Z,0.40
2023-03-26T19:32:16.787Z,0.50
2023-03-26T19:34:46.620Z,0.67
2023-03-26T19:37:19.789Z,0.60
2023-03-26T19:39:49.156Z,0.60
2023-03-26T19:42:21.063Z,0.53
2023-03-26T19:44:48.000Z,0.50
2023-03-26T19:50:26.204Z,0.50
2023-03-26T19:51:18.356Z,0.50
2023-03-26T19:53:22.395Z,0.60
2023-03-26T19:55:55.619Z,0.50
2023-03-26T19:58:22.159Z,0.60
2023-03-26T20:00:48.724Z,0.60
2023-03-26T20:03:29.518Z,0.50
2023-03-26T20:05:58.011Z,0.40
2023-03-26T20:08:26.693Z,0.60
2023-03-26T20:10:54.880Z,0.50
2023-03-26T20:13:21.625Z,0.40
2023-03-26T20:16:05.550Z,0.50
2023-03-26T20:18:33.201Z,0.57
2023-03-26T20:20:59.700Z,0.70
2023-03-26T20:23:28.938Z,0.40
2023-03-26T20:25:55.777Z,0.70
2023-03-26T20:28:24.250Z,0.30
2023-03-26T20:30:54.381Z,0.70
2023-03-26T20:33:27.507Z,0.50
2023-03-26T20:35:56.727Z,0.77
2023-03-26T20:38:36.605Z,0.73
2023-03-26T20:41:06.982Z,0.50
2023-03-26T20:43:33.438Z,0.70
2023-03-26T20:46:00.530Z,1.10
2023-03-26T20:48:27.000Z,1.07
2023-03-26T20:50:54.063Z,0.87
2023-03-26T20:53:20.719Z,0.53
2023-03-26T20:55:48.318Z,0.60
2023-03-26T20:58:31.438Z,0.40
2023-03-26T21:01:02.213Z,0.50
2023-03-26T21:03:29.013Z,0.50
2023-03-26T21:05:59.670Z,0.40
2023-03-26T21:08:30.192Z,0.53
2023-03-26T21:11:01.932Z,0.60
2023-03-26T21:13:47.005Z,0.63
2023-03-26T21:16:14.509Z,0.80
2023-03-26T21:18:42.036Z,1.13
2023-03-26T21:21:30.791Z,0.80
2023-03-26T21:24:14.563Z,0.90
2023-03-26T21:27:18.369Z,0.43
2023-03-26T21:29:44.997Z,0.40
2023-03-26T21:32:12.229Z,0.60
2023-03-26T21:34:47.722Z,0.47
2023-03-26T21:37:19.204Z,0.90
2023-03-26T21:39:46.288Z,0.43
2023-03-26T21:42:13.199Z,0.57
2023-03-26T21:44:39.876Z,0.40
2023-03-26T21:47:09.758Z,0.50
2023-03-26T21:49:37.199Z,0.60
2023-03-26T21:52:04.300Z,0.57
2023-03-26T21:54:32.481Z,0.50
2023-03-26T21:57:23.186Z,0.40
2023-03-26T22:00:14.891Z,0.50
2023-03-26T22:03:02.932Z,0.50
2023-03-26T22:05:41.016Z,0.50
2023-03-26T22:08:16.613Z,0.60
2023-03-26T22:10:43.245Z,0.30
2023-03-26T22:13:09.645Z,0.70
2023-03-26T22:15:37.848Z,0.60
2023-03-26T22:18:05.186Z,0.67
2023-03-26T22:20:31.767Z,0.67
2023-03-26T22:22:58.995Z,1.00
2023-03-26T22:25:25.850Z,0.83
2023-03-26T22:27:52.620Z,0.57
2023-03-26T22:30:20.840Z,0.53
2023-03-26T22:32:47.514Z,0.70
2023-03-26T22:35:14.680Z,0.77
2023-03-26T22:37:41.605Z,0.60
2023-03-26T22:40:09.030Z,0.50
2023-03-26T22:42:36.139Z,0.50
2023-03-26T22:45:02.944Z,0.70
2023-03-26T22:47:30.674Z,0.53
2023-03-26T22:49:57.384Z,0.63
2023-03-26T22:52:23.825Z,0.43
2023-03-26T22:54:50.308Z,0.50
2023-03-26T22:57:17.024Z,0.70
2023-03-26T22:59:43.523Z,0.60
2023-03-26T23:02:12.259Z,0.40
2023-03-26T23:04:39.065Z,0.37
2023-03-26T23:07:05.886Z,0.40
2023-03-26T23:09:32.293Z,0.57
2023-03-26T23:11:58.770Z,0.60
2023-03-26T23:14:25.193Z,0.60
2023-03-26T23:16:51.763Z,0.50
2023-03-26T23:19:18.204Z,0.40
2023-03-26T23:21:45.256Z,0.50
2023-03-26T23:24:11.668Z,0.57
2023-03-26T23:26:49.545Z,0.90
2023-03-26T23:29:17.286Z,0.97
2023-03-26T23:31:43.897Z,1.10
2023-03-26T23:34:10.871Z,0.70
2023-03-26T23:36:37.346Z,0.70
2023-03-26T23:39:04.616Z,0.60
2023-03-26T23:41:31.159Z,1.77
2023-03-26T23:43:57.635Z,0.60
2023-03-26T23:46:30.627Z,0.80
2023-03-26T23:49:00.033Z,0.70
2023-03-26T23:51:26.725Z,0.80
2023-03-26T23:53:53.754Z,0.70
2023-03-26T23:56:20.749Z,0.83
2023-03-26T23:58:48.658Z,0.30
